Ana Sayfa
METAR-TAF:

METAR-TAF

Havaalanları :

Mountain Empire Airport

Marion / Wytheville, Virginia, Amerika Birleşik Devletleri

Enlem: 36-54N, Boylam: 081-21W, yükseklik: 780 m

Güncel hava durumu gözlemi

Rapor saat 08:15 UTC de 21 dakika önce yapıldı.
Rüzgar batıdan 5 kt
Sıcaklık 21°C
Nem 100%
Basınç 1019 hPa
Görüş mesafesi: 11.3 km
2200 ft yükseklikte parçalı bulutlu
5000 ft yükseklikte parçalı bulutlu
12000 ft yükseklikte çok bulutlu
civarda gök gürültülü fırtına, yağmur

METAR: KMKJ 220815Z AUTO 26005KT 7SM VCTSRA SCT022 SCT050 OVC120 21/21 A3008 RMK AO2 LTG DSNT E W AND NW P0010 T02120212

Saat: 04:36 (08:36 UTC)


TAF: eksik

4.000'den fazla havaalanı için hava durumu gözlemleri ve tahminleri (METAR ve TAF raporları).

Kullanılabilir istasyonlar harita üzerinde sarı ve kırmızı noktalarla gösterilir.

İstasyonun adını görmek için fareyi noktanın üzerinde gezdirin.

Sonrasında hava gözlem ve tahminlerini görmek için tıklayın.

Haritayı değiştirmek için: yaklaştırmak için siyah artı işaretli yeşil düğmeye ve uzaklaştırmak için de eksi işaretli düğmeye hızla tıklayın; bitişik haritalar için yeşil okları kullanın.


METAR-TAF: